AQJ weather

Aqaba King Hussein International Airport
Aqaba, Al 'Aqaba Governorate, Jordan

Public forecast

Using degrees Celsius for public forecast. Weather courtesy of forecast.io.

Current aviation weather report (METAR) for Aqaba King Hussein International Airport

Retrieved 2019/10/16 08:00 UTC (8 minutes ago):

OJAQ 160800Z 36010KT 8000 FEW030 SCT200 31/18 Q1011 NOSIG

Aviation forecast (TAF) for Aqaba King Hussein International Airport

Retrieved 2019/10/16 06:00 UTC (2 hours ago):

TAF OJAQ 160436Z 1606/1712 35012KT 8000 BKN030 TEMPO 1607/1618 5000 TSRA FEW030CB SCT030 BKN060